createdAt,value
2023-02-02T00:00:05.294Z,4.57
2023-02-02T00:02:50.677Z,4.80
2023-02-02T00:05:36.117Z,4.40
2023-02-02T00:08:22.269Z,4.40
2023-02-02T00:11:07.653Z,4.70
2023-02-02T00:13:53.456Z,4.30
2023-02-02T00:16:41.519Z,4.10
2023-02-02T00:19:29.430Z,4.00
2023-02-02T00:22:14.620Z,4.23
2023-02-02T00:24:59.585Z,4.10
2023-02-02T00:27:45.083Z,4.10
2023-02-02T00:30:30.246Z,4.60
2023-02-02T00:33:15.553Z,3.80
2023-02-02T00:36:00.861Z,3.90
2023-02-02T00:38:46.577Z,3.90
2023-02-02T00:41:31.836Z,3.93
2023-02-02T00:44:17.084Z,3.83
2023-02-02T00:47:02.566Z,3.93
2023-02-02T00:49:47.608Z,3.20
2023-02-02T00:52:33.003Z,4.17
2023-02-02T00:55:19.214Z,3.93
2023-02-02T00:58:04.345Z,3.40
2023-02-02T01:00:49.661Z,3.70
2023-02-02T01:03:34.914Z,3.23
2023-02-02T01:06:20.278Z,3.30
2023-02-02T01:09:05.289Z,3.23
2023-02-02T01:11:50.645Z,3.20
2023-02-02T01:14:35.516Z,3.23
2023-02-02T01:17:20.952Z,3.27
2023-02-02T01:20:07.865Z,3.70
2023-02-02T01:22:53.260Z,3.20
2023-02-02T01:25:38.112Z,3.40
2023-02-02T01:28:24.260Z,2.97
2023-02-02T01:31:15.721Z,3.40
2023-02-02T01:34:01.086Z,3.57
2023-02-02T01:36:46.393Z,3.10
2023-02-02T01:39:32.304Z,3.23
2023-02-02T01:42:23.287Z,3.80
2023-02-02T01:45:14.361Z,3.30
2023-02-02T01:48:00.197Z,3.97
2023-02-02T01:50:49.917Z,3.03
2023-02-02T01:53:35.922Z,2.90
2023-02-02T01:56:28.616Z,2.80
2023-02-02T01:59:16.289Z,2.83
2023-02-02T02:02:02.522Z,3.20
2023-02-02T02:04:49.910Z,2.83
2023-02-02T02:07:35.502Z,3.57
2023-02-02T02:10:20.581Z,3.43
2023-02-02T02:13:06.613Z,3.23
2023-02-02T02:16:05.915Z,2.67
2023-02-02T02:19:09.830Z,3.33
2023-02-02T02:22:14.644Z,2.90
2023-02-02T02:25:09.143Z,3.07
2023-02-02T02:27:58.467Z,3.30
2023-02-02T02:31:01.786Z,3.50
2023-02-02T02:34:05.889Z,2.87
2023-02-02T02:37:10.334Z,3.13
2023-02-02T02:39:57.797Z,2.77
2023-02-02T02:42:49.718Z,2.83
2023-02-02T02:45:36.935Z,3.23
2023-02-02T02:48:22.429Z,3.53
2023-02-02T02:51:43.485Z,3.00
2023-02-02T02:54:34.016Z,3.23
2023-02-02T02:57:34.915Z,3.00
2023-02-02T03:00:54.384Z,3.23
2023-02-02T03:03:52.615Z,3.30
2023-02-02T03:06:48.865Z,2.83
2023-02-02T03:09:38.526Z,3.30
2023-02-02T03:12:24.319Z,3.30
2023-02-02T03:15:09.828Z,3.50
2023-02-02T03:17:55.369Z,3.50
2023-02-02T03:20:41.678Z,3.77
2023-02-02T03:23:27.378Z,3.73
2023-02-02T03:26:12.966Z,3.97
2023-02-02T03:28:58.422Z,3.93
2023-02-02T03:31:43.911Z,3.80
2023-02-02T03:34:28.909Z,3.70
2023-02-02T03:37:14.189Z,4.73
2023-02-02T03:39:59.380Z,3.87
2023-02-02T03:42:44.885Z,3.57
2023-02-02T03:45:30.853Z,4.50
2023-02-02T03:48:16.001Z,4.20
2023-02-02T03:51:05.821Z,4.60
2023-02-02T03:53:51.006Z,4.47
2023-02-02T03:56:36.318Z,4.60
2023-02-02T03:59:21.771Z,4.53
2023-02-02T04:02:07.200Z,4.47
2023-02-02T04:04:52.143Z,4.97
2023-02-02T04:07:39.758Z,4.87
2023-02-02T04:10:24.772Z,5.23
2023-02-02T04:13:10.142Z,5.23
2023-02-02T04:16:00.091Z,5.20
2023-02-02T04:18:45.233Z,5.27
2023-02-02T04:21:30.797Z,5.13
2023-02-02T04:24:15.689Z,5.03
2023-02-02T04:27:01.109Z,7.30
2023-02-02T04:29:46.360Z,5.83
2023-02-02T04:32:31.483Z,5.77
2023-02-02T04:35:16.861Z,6.17
2023-02-02T04:38:02.257Z,5.90
2023-02-02T04:40:48.468Z,6.40
2023-02-02T04:43:35.113Z,5.90
2023-02-02T04:46:20.138Z,6.20
2023-02-02T04:49:05.151Z,6.13
2023-02-02T04:51:50.384Z,5.90
2023-02-02T04:54:35.809Z,6.97
2023-02-02T04:57:21.087Z,6.10
2023-02-02T05:00:06.811Z,5.53
2023-02-02T05:02:52.003Z,5.50
2023-02-02T05:05:37.379Z,5.23
2023-02-02T05:08:22.790Z,5.57
2023-02-02T05:11:13.950Z,5.97
2023-02-02T05:14:00.273Z,5.53
2023-02-02T05:16:46.185Z,5.80
2023-02-02T05:19:31.541Z,5.47
2023-02-02T05:22:16.792Z,5.40
2023-02-02T05:25:02.304Z,5.70
2023-02-02T05:27:47.716Z,5.60
2023-02-02T05:30:33.678Z,5.03
2023-02-02T05:33:18.923Z,4.80
2023-02-02T05:36:04.880Z,4.97
2023-02-02T05:38:50.499Z,5.27
2023-02-02T05:41:35.678Z,4.97
2023-02-02T05:44:21.091Z,5.77
2023-02-02T05:47:06.099Z,5.60
2023-02-02T05:49:51.465Z,5.17
2023-02-02T05:52:39.035Z,4.70
2023-02-02T05:55:24.407Z,4.93
2023-02-02T05:58:09.995Z,5.27
2023-02-02T06:00:56.853Z,5.07
2023-02-02T06:03:42.384Z,5.33
2023-02-02T06:06:27.697Z,5.00
2023-02-02T06:09:13.509Z,5.10
2023-02-02T06:11:58.890Z,5.30
2023-02-02T06:14:44.794Z,5.43
2023-02-02T06:17:30.272Z,5.10
2023-02-02T06:20:15.556Z,4.60
2023-02-02T06:23:00.860Z,5.13
2023-02-02T06:25:46.161Z,3.80
2023-02-02T06:28:32.071Z,4.30
2023-02-02T06:31:18.026Z,3.50
2023-02-02T06:34:03.502Z,4.03
2023-02-02T06:36:48.617Z,3.70
2023-02-02T06:39:34.161Z,3.73
2023-02-02T06:42:21.882Z,3.67
2023-02-02T06:45:07.536Z,4.33
2023-02-02T06:47:53.258Z,4.43
2023-02-02T06:50:38.767Z,3.83
2023-02-02T06:53:23.778Z,9.33
2023-02-02T06:56:12.455Z,6.97
2023-02-02T06:58:57.496Z,4.83
2023-02-02T07:01:42.844Z,4.00
2023-02-02T07:04:28.328Z,4.07
2023-02-02T07:07:13.396Z,4.53
2023-02-02T07:09:58.745Z,4.87
2023-02-02T07:12:44.299Z,4.53
2023-02-02T07:15:29.490Z,4.67
2023-02-02T07:18:14.875Z,5.47
2023-02-02T07:21:01.117Z,4.60
2023-02-02T07:23:45.987Z,4.50
2023-02-02T07:26:31.767Z,4.73
2023-02-02T07:29:17.201Z,4.23
2023-02-02T07:32:02.545Z,4.40
2023-02-02T07:34:47.475Z,4.33
2023-02-02T07:37:32.952Z,3.60
2023-02-02T07:40:18.380Z,4.40
2023-02-02T07:43:03.559Z,4.07
2023-02-02T07:45:48.480Z,3.97
2023-02-02T07:48:35.024Z,4.20
2023-02-02T07:51:20.052Z,4.17
2023-02-02T07:54:05.599Z,4.23
2023-02-02T07:56:50.870Z,3.73
2023-02-02T07:59:36.213Z,3.77
2023-02-02T08:02:21.592Z,3.60
2023-02-02T08:05:06.911Z,4.37
2023-02-02T08:07:52.285Z,4.93
2023-02-02T08:10:37.891Z,3.53
2023-02-02T08:13:23.275Z,3.60
2023-02-02T08:16:09.233Z,4.37
2023-02-02T08:18:54.452Z,3.60
2023-02-02T08:21:40.502Z,3.90
2023-02-02T08:24:25.934Z,3.77
2023-02-02T08:27:11.228Z,3.63
2023-02-02T08:29:56.693Z,4.40
2023-02-02T08:32:42.093Z,4.47
2023-02-02T08:35:27.489Z,3.27
2023-02-02T08:38:13.392Z,3.10
2023-02-02T08:41:45.281Z,3.60
2023-02-02T08:45:00.698Z,3.23
2023-02-02T08:47:35.744Z,3.30
2023-02-02T08:50:21.181Z,3.57
2023-02-02T08:53:06.115Z,3.83
2023-02-02T08:56:02.167Z,3.43
2023-02-02T08:58:50.486Z,3.50
2023-02-02T09:01:35.693Z,3.10
2023-02-02T09:04:20.808Z,3.30
2023-02-02T09:07:06.013Z,3.40
2023-02-02T09:09:51.144Z,3.37
2023-02-02T09:12:36.317Z,3.23
2023-02-02T09:15:21.238Z,3.80
2023-02-02T09:18:06.687Z,3.13
2023-02-02T09:20:51.993Z,3.23
2023-02-02T09:23:39.477Z,3.33
2023-02-02T09:26:28.870Z,3.30
2023-02-02T09:29:17.382Z,3.40
2023-02-02T09:32:02.541Z,3.63
2023-02-02T09:34:48.226Z,2.93
2023-02-02T09:37:36.490Z,3.10
2023-02-02T09:40:21.841Z,3.27
2023-02-02T09:43:12.811Z,3.57
2023-02-02T09:46:06.877Z,3.30
2023-02-02T09:49:00.689Z,3.23
2023-02-02T09:51:53.643Z,3.30
2023-02-02T09:54:45.996Z,3.90
2023-02-02T09:57:39.836Z,2.80
2023-02-02T10:00:31.473Z,2.77
2023-02-02T10:03:47.693Z,2.70
2023-02-02T10:06:39.104Z,2.80
2023-02-02T10:09:40.860Z,2.77
2023-02-02T10:12:43.410Z,3.27
2023-02-02T10:16:06.921Z,3.37
2023-02-02T10:18:59.786Z,3.97
2023-02-02T10:22:02.435Z,4.00
2023-02-02T10:24:47.645Z,4.27
2023-02-02T10:27:40.259Z,4.33
2023-02-02T10:30:35.228Z,3.97
2023-02-02T10:33:30.520Z,3.57
2023-02-02T10:36:32.659Z,3.63
2023-02-02T10:39:27.916Z,3.97
2023-02-02T10:42:26.951Z,3.37
2023-02-02T10:45:19.162Z,3.50
2023-02-02T10:48:13.792Z,3.60
2023-02-02T10:51:02.278Z,28.40
2023-02-02T10:53:50.877Z,12.70
2023-02-02T10:56:40.315Z,3.20
2023-02-02T10:59:33.429Z,3.10
2023-02-02T11:02:21.074Z,4.70
2023-02-02T11:05:12.837Z,4.43
2023-02-02T11:07:57.918Z,4.40
2023-02-02T11:10:48.496Z,4.80
2023-02-02T11:13:41.117Z,3.87
2023-02-02T11:16:38.785Z,4.20
2023-02-02T11:19:32.423Z,3.77
2023-02-02T11:22:34.204Z,4.20
2023-02-02T11:25:38.000Z,3.97
2023-02-02T11:28:26.041Z,4.50
2023-02-02T11:31:10.983Z,3.70
2023-02-02T11:34:20.572Z,3.50
2023-02-02T11:37:13.924Z,3.90
2023-02-02T11:40:20.326Z,3.70
2023-02-02T11:43:17.128Z,3.87
2023-02-02T11:46:13.139Z,4.13
2023-02-02T11:49:00.442Z,4.30
2023-02-02T11:52:07.442Z,3.97
2023-02-02T11:54:56.880Z,4.17
2023-02-02T11:58:12.079Z,4.33
2023-02-02T12:01:03.409Z,4.17
2023-02-02T12:03:48.665Z,4.00
2023-02-02T12:06:36.717Z,4.90
2023-02-02T12:09:24.559Z,5.20
2023-02-02T12:12:39.292Z,5.67
2023-02-02T12:15:43.870Z,4.47
2023-02-02T12:18:57.256Z,4.40
2023-02-02T12:22:21.853Z,4.53
2023-02-02T12:25:44.919Z,4.00
2023-02-02T12:28:51.611Z,4.73
2023-02-02T12:31:45.899Z,4.50
2023-02-02T12:34:56.927Z,4.60
2023-02-02T12:38:03.853Z,5.00
2023-02-02T12:41:31.912Z,5.17
2023-02-02T12:44:28.717Z,5.80
2023-02-02T12:47:58.695Z,5.43
2023-02-02T12:50:54.165Z,6.03
2023-02-02T12:54:34.717Z,5.70
2023-02-02T12:57:19.164Z,5.40
2023-02-02T13:00:49.574Z,6.37
2023-02-02T13:04:00.181Z,6.40
2023-02-02T13:06:55.726Z,6.07
2023-02-02T13:09:59.122Z,6.17
2023-02-02T13:12:56.716Z,7.10
2023-02-02T13:15:45.559Z,6.60
2023-02-02T13:18:37.613Z,6.37
2023-02-02T13:21:24.906Z,6.67
2023-02-02T13:24:14.960Z,6.57
2023-02-02T13:27:04.006Z,6.30
2023-02-02T13:30:18.592Z,6.10
2023-02-02T13:33:13.490Z,6.50
2023-02-02T13:36:23.127Z,6.23
2023-02-02T13:39:20.324Z,6.17
2023-02-02T13:42:07.749Z,6.60
2023-02-02T13:45:00.368Z,6.07
2023-02-02T13:47:53.251Z,6.23
2023-02-02T13:50:56.413Z,6.17
2023-02-02T13:53:55.345Z,5.90
2023-02-02T13:56:55.669Z,6.30
2023-02-02T14:00:17.536Z,7.10
2023-02-02T14:03:07.150Z,7.43
2023-02-02T14:06:06.006Z,7.77
2023-02-02T14:08:55.932Z,7.63
2023-02-02T14:11:56.386Z,8.40
2023-02-02T14:14:46.749Z,8.50
2023-02-02T14:17:32.160Z,7.67
2023-02-02T14:20:41.781Z,8.00
2023-02-02T14:23:53.189Z,6.97
2023-02-02T14:26:46.269Z,7.00
2023-02-02T14:29:31.641Z,6.73
2023-02-02T14:32:25.912Z,7.37
2023-02-02T14:35:11.692Z,7.47
2023-02-02T14:38:04.738Z,7.83
2023-02-02T14:41:10.613Z,6.63
2023-02-02T14:43:55.568Z,6.30
2023-02-02T14:46:41.198Z,6.20
2023-02-02T14:49:32.137Z,6.63
2023-02-02T14:52:22.665Z,6.93
2023-02-02T14:55:27.161Z,7.23
2023-02-02T14:58:23.969Z,8.53
2023-02-02T15:01:12.990Z,9.70
2023-02-02T15:04:16.996Z,8.50
2023-02-02T15:07:37.165Z,11.57
2023-02-02T15:10:47.322Z,12.03
2023-02-02T15:13:37.172Z,13.07
2023-02-02T15:16:29.184Z,11.80
2023-02-02T15:19:24.712Z,12.17
2023-02-02T15:22:25.354Z,11.70
2023-02-02T15:25:21.759Z,10.63
2023-02-02T15:28:29.212Z,10.60
2023-02-02T15:31:29.400Z,10.43
2023-02-02T15:34:23.461Z,9.73
2023-02-02T15:37:18.112Z,9.73
2023-02-02T15:40:07.442Z,11.23
2023-02-02T15:42:57.179Z,12.27
2023-02-02T15:46:00.942Z,9.93
2023-02-02T15:48:47.433Z,10.60
2023-02-02T15:51:33.848Z,9.93
2023-02-02T15:54:24.903Z,12.47
2023-02-02T15:57:44.808Z,13.23
2023-02-02T16:00:34.055Z,14.70
2023-02-02T16:03:26.649Z,15.67
2023-02-02T16:06:12.588Z,17.43
2023-02-02T16:08:57.886Z,18.60
2023-02-02T16:11:44.783Z,16.30
2023-02-02T16:14:31.016Z,17.83
2023-02-02T16:17:28.223Z,18.70
2023-02-02T16:20:16.472Z,16.33
2023-02-02T16:23:02.908Z,21.07
2023-02-02T16:25:53.004Z,16.57
2023-02-02T16:28:40.099Z,16.70
2023-02-02T16:31:25.606Z,15.10
2023-02-02T16:34:39.909Z,14.90
2023-02-02T16:37:27.368Z,13.83
2023-02-02T16:40:26.171Z,15.63
2023-02-02T16:43:20.057Z,17.07
2023-02-02T16:46:07.096Z,22.07
2023-02-02T16:48:59.275Z,18.97
2023-02-02T16:51:46.949Z,18.13
2023-02-02T16:54:32.404Z,18.83
2023-02-02T16:57:36.542Z,17.93
2023-02-02T17:00:27.994Z,19.57
2023-02-02T17:03:18.117Z,20.83
2023-02-02T17:06:04.975Z,22.40
2023-02-02T17:08:51.543Z,24.23
2023-02-02T17:11:36.808Z,27.80
2023-02-02T17:14:32.581Z,28.43
2023-02-02T17:17:17.940Z,30.83
2023-02-02T17:20:05.087Z,31.60
2023-02-02T17:22:54.337Z,32.80
2023-02-02T17:25:44.020Z,32.83
2023-02-02T17:28:29.677Z,33.93
2023-02-02T17:31:16.338Z,35.27
2023-02-02T17:34:01.293Z,32.47
2023-02-02T17:36:46.203Z,34.77
2023-02-02T17:39:31.609Z,37.03
2023-02-02T17:42:24.900Z,37.57
2023-02-02T17:45:16.391Z,39.40
2023-02-02T17:48:02.674Z,41.33
2023-02-02T17:50:48.141Z,43.47
2023-02-02T17:53:33.624Z,41.70
2023-02-02T17:56:18.937Z,44.57
2023-02-02T17:59:03.978Z,49.83
2023-02-02T18:01:50.031Z,46.10
2023-02-02T18:04:35.871Z,49.97
2023-02-02T18:07:20.993Z,47.93
2023-02-02T18:10:07.575Z,44.73
2023-02-02T18:12:52.944Z,49.07
2023-02-02T18:15:38.553Z,48.87
2023-02-02T18:18:23.851Z,42.27
2023-02-02T18:21:10.492Z,39.23
2023-02-02T18:23:55.753Z,40.67
2023-02-02T18:26:41.311Z,38.80
2023-02-02T18:29:26.486Z,38.60
2023-02-02T18:32:11.564Z,37.97
2023-02-02T18:34:56.888Z,36.73
2023-02-02T18:37:42.449Z,38.07
2023-02-02T18:40:27.496Z,37.87
2023-02-02T18:43:12.932Z,34.37
2023-02-02T18:46:03.695Z,36.67
2023-02-02T18:48:48.752Z,35.10
2023-02-02T18:51:34.145Z,35.93
2023-02-02T18:54:19.627Z,35.53
2023-02-02T18:57:04.873Z,37.27
2023-02-02T18:59:52.554Z,35.13
2023-02-02T19:02:37.512Z,38.50
2023-02-02T19:05:22.278Z,35.17
2023-02-02T19:08:07.642Z,33.40
2023-02-02T19:10:59.957Z,33.97
2023-02-02T19:13:46.015Z,34.47
2023-02-02T19:16:33.826Z,34.03
2023-02-02T19:19:27.783Z,32.53
2023-02-02T19:22:19.066Z,30.80
2023-02-02T19:25:11.296Z,31.80
2023-02-02T19:27:58.378Z,31.60
2023-02-02T19:30:43.801Z,28.63
2023-02-02T19:33:37.656Z,27.43
2023-02-02T19:36:24.793Z,26.40
2023-02-02T19:39:17.230Z,27.03
2023-02-02T19:42:10.169Z,26.90
2023-02-02T19:44:56.503Z,23.73
2023-02-02T19:47:42.549Z,24.03
2023-02-02T19:50:36.630Z,24.13
2023-02-02T19:53:24.268Z,22.33
2023-02-02T19:56:34.193Z,23.73
2023-02-02T19:59:20.307Z,23.63
2023-02-02T20:02:39.806Z,22.93
2023-02-02T20:05:28.624Z,22.93
2023-02-02T20:08:38.830Z,24.07
2023-02-02T20:11:54.977Z,22.70
2023-02-02T20:14:40.295Z,24.63
2023-02-02T20:17:32.012Z,26.27
2023-02-02T20:20:42.899Z,25.17
2023-02-02T20:23:44.832Z,25.40
2023-02-02T20:26:35.328Z,25.80
2023-02-02T20:29:23.243Z,24.90
2023-02-02T20:32:20.626Z,27.97
2023-02-02T20:35:24.109Z,27.90
2023-02-02T20:38:25.271Z,28.40
2023-02-02T20:41:10.932Z,30.43
2023-02-02T20:43:55.958Z,31.43
2023-02-02T20:46:41.320Z,32.73
2023-02-02T20:49:27.615Z,32.83
2023-02-02T20:52:15.001Z,33.23
2023-02-02T20:55:00.217Z,35.20
2023-02-02T20:57:45.670Z,35.47
2023-02-02T21:00:30.990Z,34.87
2023-02-02T21:03:16.278Z,36.83
2023-02-02T21:06:01.582Z,35.93
2023-02-02T21:08:46.847Z,37.37
2023-02-02T21:11:32.191Z,36.50
2023-02-02T21:14:17.420Z,39.03
2023-02-02T21:17:14.455Z,39.30
2023-02-02T21:20:00.725Z,39.97
2023-02-02T21:22:45.995Z,39.40
2023-02-02T21:25:31.171Z,39.53
2023-02-02T21:28:16.611Z,40.40
2023-02-02T21:31:01.965Z,64.67
2023-02-02T21:33:47.778Z,40.37
2023-02-02T21:36:35.823Z,41.17
2023-02-02T21:39:24.015Z,42.17
2023-02-02T21:42:09.413Z,41.57
2023-02-02T21:45:07.454Z,40.43
2023-02-02T21:47:58.521Z,41.20
2023-02-02T21:50:43.518Z,39.80
2023-02-02T21:53:29.009Z,41.07
2023-02-02T21:56:35.284Z,40.43
2023-02-02T21:59:32.654Z,43.43
2023-02-02T22:02:36.317Z,39.73
2023-02-02T22:05:33.761Z,38.27
2023-02-02T22:08:25.177Z,38.97
2023-02-02T22:11:27.260Z,40.63
2023-02-02T22:14:38.533Z,40.27
2023-02-02T22:17:29.063Z,41.83
2023-02-02T22:20:17.581Z,40.03
2023-02-02T22:23:03.287Z,39.13
2023-02-02T22:25:51.946Z,40.13
2023-02-02T22:28:39.695Z,39.57
2023-02-02T22:31:25.171Z,38.80
2023-02-02T22:34:10.670Z,37.67
2023-02-02T22:36:55.631Z,38.00
2023-02-02T22:39:41.109Z,37.63
2023-02-02T22:42:26.523Z,36.50
2023-02-02T22:45:11.944Z,35.17
2023-02-02T22:47:57.886Z,37.40
2023-02-02T22:50:43.567Z,34.63
2023-02-02T22:53:28.841Z,35.10
2023-02-02T22:56:14.129Z,34.93
2023-02-02T22:58:59.447Z,33.67
2023-02-02T23:01:44.408Z,32.60
2023-02-02T23:04:29.791Z,31.17
2023-02-02T23:07:15.257Z,32.97
2023-02-02T23:10:00.993Z,28.80
2023-02-02T23:12:47.207Z,30.63
2023-02-02T23:15:33.077Z,29.87
2023-02-02T23:18:18.751Z,31.80
2023-02-02T23:21:03.866Z,30.07
2023-02-02T23:23:49.244Z,29.77
2023-02-02T23:26:34.377Z,30.20
2023-02-02T23:29:20.868Z,30.07
2023-02-02T23:32:06.266Z,31.57
2023-02-02T23:34:51.486Z,30.00
2023-02-02T23:37:36.540Z,31.80
2023-02-02T23:40:22.166Z,32.27
2023-02-02T23:43:07.394Z,32.43
2023-02-02T23:45:53.196Z,34.60
2023-02-02T23:48:41.567Z,35.13
2023-02-02T23:51:27.194Z,33.73
2023-02-02T23:54:13.776Z,33.73
2023-02-02T23:56:59.530Z,34.57
2023-02-02T23:59:44.715Z,32.63
